createdAt,value
2018-11-21T00:00:01.110Z,92.66
2018-11-21T00:01:01.171Z,92.57
2018-11-21T00:02:01.310Z,92.66
2018-11-21T00:03:01.286Z,92.57
2018-11-21T00:04:01.352Z,92.85
2018-11-21T00:05:01.403Z,92.38
2018-11-21T00:06:01.468Z,92.57
2018-11-21T00:07:01.526Z,93.13
2018-11-21T00:08:01.585Z,93.51
2018-11-21T00:09:01.635Z,93.51
2018-11-21T00:10:01.695Z,93.32
2018-11-21T00:11:01.751Z,93.18
2018-11-21T00:12:01.820Z,93.56
2018-11-21T00:13:01.880Z,92.94
2018-11-21T00:14:01.927Z,93.46
2018-11-21T00:15:01.990Z,93.37
2018-11-21T00:16:02.047Z,93.13
2018-11-21T00:17:02.212Z,93.84
2018-11-21T00:18:02.163Z,93.65
2018-11-21T00:19:02.216Z,93.84
2018-11-21T00:20:02.275Z,94.32
2018-11-21T00:21:02.331Z,94.13
2018-11-21T00:22:02.403Z,94.23
2018-11-21T00:23:02.455Z,93.94
2018-11-21T00:24:02.518Z,94.23
2018-11-21T00:25:02.572Z,93.94
2018-11-21T00:26:02.624Z,94.51
2018-11-21T00:27:02.687Z,94.51
2018-11-21T00:28:02.748Z,94.42
2018-11-21T00:29:02.822Z,94.60
2018-11-21T00:30:02.856Z,94.51
2018-11-21T00:31:02.912Z,94.70
2018-11-21T00:32:02.979Z,94.51
2018-11-21T00:33:03.036Z,94.60
2018-11-21T00:34:03.087Z,94.60
2018-11-21T00:35:03.146Z,94.51
2018-11-21T00:36:03.203Z,94.79
2018-11-21T00:37:03.273Z,94.89
2018-11-21T00:38:03.367Z,94.89
2018-11-21T00:39:03.376Z,94.98
2018-11-21T00:40:03.436Z,94.79
2018-11-21T00:41:03.493Z,94.79
2018-11-21T00:42:03.553Z,95.45
2018-11-21T00:43:03.616Z,95.45
2018-11-21T00:44:03.673Z,95.45
2018-11-21T00:45:03.725Z,95.45
2018-11-21T00:46:03.784Z,95.55
2018-11-21T00:47:03.840Z,95.55
2018-11-21T00:48:03.905Z,95.93
2018-11-21T00:49:03.966Z,95.26
2018-11-21T00:50:04.013Z,96.03
2018-11-21T00:51:04.075Z,95.93
2018-11-21T00:52:04.124Z,96.03
2018-11-21T00:53:04.189Z,96.22
2018-11-21T00:54:04.288Z,96.03
2018-11-21T00:55:04.313Z,96.03
2018-11-21T00:56:04.361Z,96.12
2018-11-21T00:57:04.421Z,96.31
2018-11-21T00:58:04.478Z,96.50
2018-11-21T00:59:04.551Z,96.31
2018-11-21T01:00:04.621Z,96.88
2018-11-21T01:01:04.653Z,96.69
2018-11-21T01:02:04.713Z,96.50
2018-11-21T01:03:04.769Z,97.07
2018-11-21T01:04:04.833Z,97.07
2018-11-21T01:05:04.894Z,97.07
2018-11-21T01:06:04.941Z,97.07
2018-11-21T01:07:05.003Z,96.50
2018-11-21T01:08:05.057Z,96.31
2018-11-21T01:09:05.369Z,96.69
2018-11-21T01:10:05.173Z,97.07
2018-11-21T01:11:05.233Z,97.07
2018-11-21T01:12:05.289Z,97.11
2018-11-21T01:13:05.346Z,97.07
2018-11-21T01:14:05.414Z,97.26
2018-11-21T01:15:05.470Z,96.88
2018-11-21T01:16:05.533Z,96.69
2018-11-21T01:17:05.580Z,97.49
2018-11-21T01:18:05.640Z,97.07
2018-11-21T01:19:05.705Z,96.97
2018-11-21T01:20:05.758Z,97.02
2018-11-21T01:21:05.809Z,97.26
2018-11-21T01:22:05.869Z,97.45
2018-11-21T01:23:05.925Z,97.45
2018-11-21T01:24:05.989Z,97.49
2018-11-21T01:25:06.051Z,97.87
2018-11-21T01:26:06.106Z,97.45
2018-11-21T01:27:06.158Z,97.68
2018-11-21T01:28:06.214Z,97.26
2018-11-21T01:29:06.318Z,97.35
2018-11-21T01:30:06.337Z,97.45
2018-11-21T01:31:06.392Z,97.16
2018-11-21T01:32:06.446Z,96.97
2018-11-21T01:33:09.766Z,97.16
2018-11-21T01:34:06.575Z,97.07
2018-11-21T01:35:06.650Z,97.07
2018-11-21T01:36:06.678Z,97.26
2018-11-21T01:37:06.751Z,97.26
2018-11-21T01:38:06.807Z,97.07
2018-11-21T01:39:06.862Z,98.21
2018-11-21T01:40:06.923Z,97.78
2018-11-21T01:41:06.972Z,97.92
2018-11-21T01:42:07.029Z,97.83
2018-11-21T01:43:07.087Z,97.35
2018-11-21T01:44:07.238Z,97.45
2018-11-21T01:45:07.203Z,97.26
2018-11-21T01:46:07.259Z,97.07
2018-11-21T01:47:07.327Z,97.07
2018-11-21T01:48:07.379Z,97.26
2018-11-21T01:49:07.440Z,97.45
2018-11-21T01:50:07.503Z,97.92
2018-11-21T01:51:07.551Z,97.83
2018-11-21T01:52:07.611Z,97.26
2018-11-21T01:53:07.683Z,97.35
2018-11-21T01:54:07.728Z,97.54
2018-11-21T01:55:07.798Z,97.26
2018-11-21T01:56:07.839Z,96.88
2018-11-21T01:57:07.899Z,97.07
2018-11-21T01:58:07.955Z,96.88
2018-11-21T01:59:08.019Z,97.16
2018-11-21T02:00:08.077Z,96.97
2018-11-21T02:01:08.131Z,97.45
2018-11-21T02:02:08.187Z,97.16
2018-11-21T02:03:08.243Z,97.45
2018-11-21T02:04:08.308Z,97.54
2018-11-21T02:05:08.369Z,98.02
2018-11-21T02:06:08.420Z,97.83
2018-11-21T02:07:08.476Z,97.73
2018-11-21T02:08:08.540Z,97.73
2018-11-21T02:09:08.600Z,97.92
2018-11-21T02:10:08.656Z,97.73
2018-11-21T02:11:08.712Z,97.83
2018-11-21T02:12:08.766Z,97.92
2018-11-21T02:13:08.824Z,97.73
2018-11-21T02:14:08.896Z,98.02
2018-11-21T02:15:08.944Z,98.77
2018-11-21T02:16:08.996Z,98.58
2018-11-21T02:17:09.056Z,98.39
2018-11-21T02:18:09.108Z,98.49
2018-11-21T02:19:09.186Z,98.58
2018-11-21T02:20:09.228Z,98.87
2018-11-21T02:21:09.285Z,98.68
2018-11-21T02:22:09.345Z,98.49
2018-11-21T02:23:09.402Z,98.49
2018-11-21T02:24:09.465Z,98.58
2018-11-21T02:25:09.525Z,98.58
2018-11-21T02:26:09.573Z,98.21
2018-11-21T02:27:09.632Z,98.77
2018-11-21T02:28:09.689Z,99.29
2018-11-21T02:29:09.757Z,99.10
2018-11-21T02:30:09.818Z,99.53
2018-11-21T02:31:09.867Z,99.10
2018-11-21T02:32:09.921Z,99.48
2018-11-21T02:33:09.981Z,99.48
2018-11-21T02:34:10.048Z,99.67
2018-11-21T02:35:10.103Z,99.99
2018-11-21T02:36:10.154Z,99.96
2018-11-21T02:37:10.209Z,99.99
2018-11-21T02:38:10.273Z,99.99
2018-11-21T02:39:10.335Z,99.99
2018-11-21T02:40:10.389Z,99.99
2018-11-21T02:41:10.446Z,99.99
2018-11-21T02:42:10.501Z,99.99
2018-11-21T02:43:10.562Z,99.99
2018-11-21T02:44:10.624Z,99.99
2018-11-21T02:45:10.682Z,99.99
2018-11-21T02:46:10.730Z,99.99
2018-11-21T02:47:10.790Z,99.99
2018-11-21T02:48:10.845Z,99.99
2018-11-21T02:49:10.914Z,99.99
2018-11-21T02:50:10.973Z,99.99
2018-11-21T02:51:11.023Z,99.99
2018-11-21T02:52:11.078Z,99.99
2018-11-21T02:53:11.138Z,99.99
2018-11-21T02:54:11.435Z,99.99
2018-11-21T02:55:11.257Z,99.99
2018-11-21T02:56:11.310Z,99.99
2018-11-21T02:57:11.366Z,99.99
2018-11-21T02:58:11.426Z,99.99
2018-11-21T02:59:11.491Z,99.99
2018-11-21T03:00:11.547Z,99.99
2018-11-21T03:01:11.599Z,99.99
2018-11-21T03:02:11.658Z,99.99
2018-11-21T03:03:11.714Z,99.99
2018-11-21T03:04:11.778Z,99.99
2018-11-21T03:05:11.839Z,99.99
2018-11-21T03:06:11.891Z,99.99
2018-11-21T03:07:11.947Z,99.99
2018-11-21T03:08:12.002Z,99.99
2018-11-21T03:09:12.070Z,99.99
2018-11-21T03:10:12.127Z,99.99
2018-11-21T03:11:12.178Z,99.99
2018-11-21T03:12:12.234Z,99.99
2018-11-21T03:13:12.296Z,99.99
2018-11-21T03:14:12.360Z,99.99
2018-11-21T03:15:12.419Z,99.99
2018-11-21T03:16:12.467Z,99.99
2018-11-21T03:17:12.526Z,99.99
2018-11-21T03:18:12.583Z,99.99
2018-11-21T03:19:12.648Z,99.99
2018-11-21T03:20:12.707Z,99.99
2018-11-21T03:21:12.755Z,99.99
2018-11-21T03:22:12.815Z,99.99
2018-11-21T03:23:12.873Z,99.99
2018-11-21T03:24:12.939Z,99.99
2018-11-21T03:25:13.003Z,99.99
2018-11-21T03:26:13.048Z,99.99
2018-11-21T03:27:13.103Z,99.99
2018-11-21T03:28:13.164Z,99.99
2018-11-21T03:29:13.220Z,99.99
2018-11-21T03:30:13.299Z,99.99
2018-11-21T03:31:13.340Z,99.99
2018-11-21T03:32:13.400Z,99.99
2018-11-21T03:33:13.453Z,99.99
2018-11-21T03:34:13.512Z,99.99
2018-11-21T03:35:13.577Z,99.99
2018-11-21T03:36:13.635Z,99.99
2018-11-21T03:37:13.684Z,99.99
2018-11-21T03:38:13.744Z,99.99
2018-11-21T03:39:13.800Z,99.99
2018-11-21T03:40:13.867Z,99.99
2018-11-21T03:41:13.921Z,99.99
2018-11-21T03:42:13.973Z,99.99
2018-11-21T03:43:14.033Z,99.99
2018-11-21T03:44:14.092Z,99.99
2018-11-21T03:45:14.148Z,99.99
2018-11-21T03:46:14.444Z,99.99
2018-11-21T03:47:14.266Z,99.99
2018-11-21T03:48:14.321Z,99.99
2018-11-21T03:49:14.380Z,99.99
2018-11-21T03:50:14.437Z,99.99
2018-11-21T03:51:14.501Z,99.99
2018-11-21T03:52:14.562Z,99.99
2018-11-21T03:53:14.609Z,99.99
2018-11-21T03:54:14.673Z,99.99
2018-11-21T03:55:14.724Z,99.99
2018-11-21T03:56:14.796Z,99.99
2018-11-21T03:57:14.851Z,99.99
2018-11-21T03:58:14.906Z,99.99
2018-11-21T03:59:14.958Z,99.99
2018-11-21T04:00:15.022Z,99.99
2018-11-21T04:01:15.089Z,99.99
2018-11-21T04:02:15.132Z,99.99
2018-11-21T04:03:15.189Z,99.99
2018-11-21T04:04:15.245Z,99.99
2018-11-21T04:05:15.307Z,99.99
2018-11-21T04:06:15.369Z,99.99
2018-11-21T04:07:15.435Z,99.99
2018-11-21T04:08:15.481Z,99.99
2018-11-21T04:09:15.535Z,99.99
2018-11-21T04:10:15.594Z,99.99
2018-11-21T04:11:15.660Z,99.99
2018-11-21T04:12:15.714Z,99.99
2018-11-21T04:13:15.765Z,99.99
2018-11-21T04:14:15.821Z,99.99
2018-11-21T04:15:15.884Z,99.99
2018-11-21T04:16:15.947Z,99.99
2018-11-21T04:17:16.003Z,99.99
2018-11-21T04:18:16.054Z,99.99
2018-11-21T04:19:16.110Z,99.99
2018-11-21T04:20:16.172Z,99.99
2018-11-21T04:21:16.227Z,99.99
2018-11-21T04:22:16.316Z,99.99
2018-11-21T04:23:16.341Z,99.99
2018-11-21T04:24:16.398Z,99.99
2018-11-21T04:25:16.458Z,99.99
2018-11-21T04:26:16.515Z,99.99
2018-11-21T04:27:16.578Z,99.99
2018-11-21T04:28:16.638Z,99.99
2018-11-21T04:29:16.688Z,99.99
2018-11-21T04:30:16.746Z,99.99
2018-11-21T04:31:16.803Z,99.99
2018-11-21T04:32:16.866Z,99.99
2018-11-21T04:33:16.930Z,99.99
2018-11-21T04:34:16.976Z,99.99
2018-11-21T04:35:17.036Z,99.99
2018-11-21T04:36:17.092Z,99.99
2018-11-21T04:37:17.147Z,99.99
2018-11-21T04:38:17.239Z,99.99
2018-11-21T04:39:17.262Z,99.99
2018-11-21T04:40:17.323Z,99.99
2018-11-21T04:41:17.379Z,99.99
2018-11-21T04:42:17.439Z,99.99
2018-11-21T04:43:17.504Z,99.99
2018-11-21T04:44:17.560Z,99.99
2018-11-21T04:45:17.607Z,99.99
2018-11-21T04:46:17.669Z,99.99
2018-11-21T04:47:17.723Z,99.99
2018-11-21T04:48:17.787Z,99.99
2018-11-21T04:49:17.849Z,99.99
2018-11-21T04:50:17.901Z,99.99
2018-11-21T04:51:17.955Z,99.99
2018-11-21T04:52:18.015Z,99.99
2018-11-21T04:53:18.087Z,99.99
2018-11-21T04:54:18.128Z,99.99
2018-11-21T04:55:18.184Z,99.99
2018-11-21T04:56:18.244Z,99.99
2018-11-21T04:57:18.300Z,99.99
2018-11-21T04:58:18.364Z,99.99
2018-11-21T04:59:18.420Z,99.99
2018-11-21T05:00:18.476Z,99.99
2018-11-21T05:01:18.528Z,99.99
2018-11-21T05:02:18.584Z,99.99
2018-11-21T05:03:18.652Z,99.99
2018-11-21T05:04:18.709Z,99.99
2018-11-21T05:05:18.756Z,99.99
2018-11-21T05:06:18.816Z,99.99
2018-11-21T05:07:18.874Z,99.99
2018-11-21T05:08:18.936Z,99.99
2018-11-21T05:09:18.997Z,99.99
2018-11-21T05:10:19.046Z,99.99
2018-11-21T05:11:19.104Z,99.99
2018-11-21T05:12:19.161Z,99.99
2018-11-21T05:13:19.216Z,99.99
2018-11-21T05:14:19.296Z,99.99
2018-11-21T05:15:19.336Z,99.99
2018-11-21T05:16:19.392Z,99.99
2018-11-21T05:17:19.448Z,99.99
2018-11-21T05:18:19.505Z,99.99
2018-11-21T05:19:19.569Z,99.99
2018-11-21T05:20:19.625Z,99.99
2018-11-21T05:21:19.677Z,99.99
2018-11-21T05:22:19.733Z,99.99
2018-11-21T05:23:19.789Z,99.99
2018-11-21T05:24:19.852Z,99.99
2018-11-21T05:25:19.949Z,99.99
2018-11-21T05:26:19.961Z,99.99
2018-11-21T05:27:20.017Z,99.99
2018-11-21T05:28:20.074Z,99.99
2018-11-21T05:29:20.133Z,99.99
2018-11-21T05:30:20.214Z,99.99
2018-11-21T05:31:20.248Z,99.99
2018-11-21T05:32:20.317Z,99.99
2018-11-21T05:33:20.363Z,99.99
2018-11-21T05:34:20.418Z,99.99
2018-11-21T05:35:20.482Z,99.99
2018-11-21T05:36:20.538Z,99.99
2018-11-21T05:37:20.589Z,99.99
2018-11-21T05:38:20.646Z,99.99
2018-11-21T05:39:20.703Z,99.99
2018-11-21T05:40:20.834Z,99.99
2018-11-21T05:41:20.822Z,99.99
2018-11-21T05:42:20.874Z,99.99
2018-11-21T05:43:20.933Z,99.99
2018-11-21T05:44:20.988Z,99.99
2018-11-21T05:45:21.052Z,99.99
2018-11-21T05:46:21.110Z,99.99
2018-11-21T05:47:21.162Z,99.99
2018-11-21T05:48:21.214Z,99.99
2018-11-21T05:49:21.401Z,99.99
2018-11-21T05:50:21.334Z,99.99
2018-11-21T05:51:21.394Z,99.99
2018-11-21T05:52:21.442Z,99.99
2018-11-21T05:53:21.498Z,99.99
2018-11-21T05:54:21.558Z,99.99
2018-11-21T05:55:21.625Z,99.99
2018-11-21T05:56:21.674Z,99.99
2018-11-21T05:57:21.732Z,99.99
2018-11-21T05:58:21.783Z,99.99
2018-11-21T05:59:21.841Z,99.99
2018-11-21T06:00:21.903Z,99.99
2018-11-21T06:01:21.959Z,99.99
2018-11-21T06:02:22.014Z,99.99
2018-11-21T06:03:22.067Z,99.99
2018-11-21T06:04:22.123Z,99.99
2018-11-21T06:05:22.430Z,99.99
2018-11-21T06:06:22.236Z,99.99
2018-11-21T06:07:22.295Z,99.99
2018-11-21T06:08:22.351Z,99.99
2018-11-21T06:09:22.408Z,99.99
2018-11-21T06:10:22.471Z,99.99
2018-11-21T06:11:22.533Z,99.99
2018-11-21T06:12:22.575Z,99.99
2018-11-21T06:13:22.635Z,99.99
2018-11-21T06:14:22.697Z,99.99
2018-11-21T06:15:22.760Z,99.99
2018-11-21T06:16:22.811Z,99.99
2018-11-21T06:17:22.860Z,99.99
2018-11-21T06:18:22.917Z,99.99
2018-11-21T06:19:22.971Z,99.99
2018-11-21T06:20:23.039Z,99.99
2018-11-21T06:21:23.095Z,99.99
2018-11-21T06:22:23.147Z,99.99
2018-11-21T06:23:23.199Z,99.99
2018-11-21T06:24:23.257Z,99.99
2018-11-21T06:25:23.323Z,99.99
2018-11-21T06:26:23.376Z,99.99
2018-11-21T06:27:23.424Z,99.99
2018-11-21T06:28:23.480Z,99.99
2018-11-21T06:29:23.539Z,99.99
2018-11-21T06:30:23.605Z,99.99
2018-11-21T06:31:23.660Z,99.99
2018-11-21T06:32:23.708Z,99.99
2018-11-21T06:33:23.764Z,99.99
2018-11-21T06:34:23.820Z,99.99
2018-11-21T06:35:23.885Z,99.99
2018-11-21T06:36:23.940Z,99.99
2018-11-21T06:37:23.993Z,99.99
2018-11-21T06:38:24.054Z,99.99
2018-11-21T06:39:24.105Z,99.99
2018-11-21T06:40:24.256Z,99.99
2018-11-21T06:41:24.216Z,99.99
2018-11-21T06:42:24.272Z,99.99
2018-11-21T06:43:24.328Z,99.99
2018-11-21T06:44:24.384Z,99.99
2018-11-21T06:45:24.448Z,99.99
2018-11-21T06:46:24.509Z,99.99
2018-11-21T06:47:24.557Z,99.99
2018-11-21T06:48:24.617Z,99.99
2018-11-21T06:49:24.674Z,99.99
2018-11-21T06:50:24.734Z,99.99
2018-11-21T06:51:24.789Z,99.99
2018-11-21T06:52:24.837Z,99.99
2018-11-21T06:53:24.893Z,99.99
2018-11-21T06:54:24.957Z,99.99
2018-11-21T06:55:25.017Z,99.99
2018-11-21T06:56:25.069Z,99.99
2018-11-21T06:57:25.122Z,99.99
2018-11-21T06:58:25.177Z,99.99
2018-11-21T06:59:25.233Z,99.99
2018-11-21T07:00:25.289Z,99.99
2018-11-21T07:01:25.590Z,99.99
2018-11-21T07:02:25.405Z,99.99
2018-11-21T07:03:25.461Z,99.99
2018-11-21T07:04:25.518Z,99.99
2018-11-21T07:05:25.573Z,99.99
2018-11-21T07:06:25.637Z,99.99
2018-11-21T07:07:25.705Z,99.99
2018-11-21T07:08:25.741Z,99.99
2018-11-21T07:09:25.798Z,99.99
2018-11-21T07:10:25.854Z,99.99
2018-11-21T07:11:25.921Z,99.99
2018-11-21T07:12:25.974Z,99.99
2018-11-21T07:13:26.024Z,99.99
2018-11-21T07:14:26.082Z,99.99
2018-11-21T07:15:26.141Z,99.99
2018-11-21T07:16:26.317Z,99.99
2018-11-21T07:17:26.250Z,99.99
2018-11-21T07:18:26.306Z,99.99
2018-11-21T07:19:26.366Z,99.99
2018-11-21T07:20:26.418Z,99.99
2018-11-21T07:21:26.486Z,99.99
2018-11-21T07:22:26.546Z,99.99
2018-11-21T07:23:26.599Z,99.99
2018-11-21T07:24:26.646Z,99.99
2018-11-21T07:25:26.706Z,99.99
2018-11-21T07:26:26.766Z,99.99
2018-11-21T07:27:26.824Z,99.99
2018-11-21T07:28:26.875Z,99.99
2018-11-21T07:29:34.286Z,99.99
2018-11-21T07:30:26.986Z,99.99
2018-11-21T07:31:27.051Z,99.99
2018-11-21T07:32:27.102Z,99.99
2018-11-21T07:33:27.155Z,99.99
2018-11-21T07:34:27.211Z,99.99
2018-11-21T07:35:27.267Z,99.99
2018-11-21T07:36:27.332Z,99.99
2018-11-21T07:37:27.387Z,99.99
2018-11-21T07:38:27.435Z,99.99
2018-11-21T07:39:27.496Z,99.99
2018-11-21T07:40:27.551Z,99.99
2018-11-21T07:41:27.619Z,99.99
2018-11-21T07:42:27.671Z,99.99
2018-11-21T07:43:27.719Z,99.99
2018-11-21T07:44:27.775Z,99.99
2018-11-21T07:45:27.832Z,99.99
2018-11-21T07:46:27.899Z,99.99
2018-11-21T07:47:27.955Z,99.99
2018-11-21T07:48:28.004Z,99.99
2018-11-21T07:49:28.059Z,99.99
2018-11-21T07:50:28.119Z,99.99
2018-11-21T07:51:28.284Z,99.99
2018-11-21T07:52:28.227Z,99.99
2018-11-21T07:53:28.287Z,99.99
2018-11-21T07:54:28.346Z,99.99
2018-11-21T07:55:28.400Z,99.99
2018-11-21T07:56:28.464Z,99.99
2018-11-21T07:57:28.520Z,99.99
2018-11-21T07:58:28.568Z,99.99
2018-11-21T07:59:28.629Z,99.99
2018-11-21T08:00:28.684Z,99.99
2018-11-21T08:01:28.753Z,99.99
2018-11-21T08:02:28.804Z,99.99
2018-11-21T08:03:28.856Z,99.99
2018-11-21T08:04:28.912Z,99.99
2018-11-21T08:05:28.975Z,99.99
2018-11-21T08:06:29.036Z,99.99
2018-11-21T08:07:29.092Z,99.99
2018-11-21T08:08:29.144Z,99.99
2018-11-21T08:09:29.200Z,99.99
2018-11-21T08:10:29.262Z,99.99
2018-11-21T08:11:29.323Z,99.99
2018-11-21T08:12:29.380Z,99.99
2018-11-21T08:13:29.437Z,99.99
2018-11-21T08:14:29.493Z,99.99
2018-11-21T08:15:29.551Z,99.99
2018-11-21T08:16:29.612Z,99.99
2018-11-21T08:17:29.668Z,99.99
2018-11-21T08:18:29.721Z,99.99
2018-11-21T08:19:29.781Z,99.99
2018-11-21T08:20:29.838Z,99.99
2018-11-21T08:21:29.903Z,99.99
2018-11-21T08:22:29.961Z,99.99
2018-11-21T08:23:30.009Z,99.99
2018-11-21T08:24:30.065Z,99.99
2018-11-21T08:25:30.130Z,99.99
2018-11-21T08:26:30.386Z,99.99
2018-11-21T08:27:30.240Z,99.99
2018-11-21T08:28:30.300Z,99.99
2018-11-21T08:29:30.359Z,99.99
2018-11-21T08:30:30.413Z,99.99
2018-11-21T08:31:30.477Z,99.99
2018-11-21T08:32:30.534Z,99.99
2018-11-21T08:33:33.961Z,99.99
2018-11-21T08:34:30.645Z,99.99
2018-11-21T08:35:30.701Z,99.99
2018-11-21T08:36:30.766Z,99.99
2018-11-21T08:37:30.830Z,99.99
2018-11-21T08:38:30.874Z,99.99
2018-11-21T08:39:30.934Z,99.99
2018-11-21T08:40:30.993Z,99.99
2018-11-21T08:41:31.062Z,99.99
2018-11-21T08:42:31.122Z,99.99
2018-11-21T08:43:31.174Z,99.99
2018-11-21T08:44:31.232Z,99.99
2018-11-21T08:45:31.286Z,99.99
2018-11-21T08:46:31.362Z,98.59
2018-11-21T08:47:31.412Z,97.45
2018-11-21T08:48:31.466Z,97.69
2018-11-21T08:49:31.526Z,96.26
2018-11-21T08:50:31.587Z,95.03
2018-11-21T08:51:31.659Z,93.37
2018-11-21T08:52:31.715Z,92.32
2018-11-21T08:53:31.766Z,91.28
2018-11-21T08:54:31.827Z,90.42
2018-11-21T08:55:31.890Z,89.71
2018-11-21T08:56:32.557Z,89.42
2018-11-21T08:57:32.015Z,88.28
2018-11-21T08:58:32.078Z,87.62
2018-11-21T08:59:32.130Z,87.19
2018-11-21T09:00:32.191Z,87.10
2018-11-21T09:01:32.251Z,87.86
2018-11-21T09:02:32.406Z,87.72
2018-11-21T09:03:32.379Z,88.29
2018-11-21T09:04:32.438Z,89.43
2018-11-21T09:05:32.494Z,90.05
2018-11-21T09:06:32.555Z,90.52
2018-11-21T09:07:32.627Z,91.90
2018-11-21T09:08:32.683Z,93.41
2018-11-21T09:09:32.742Z,94.18
2018-11-21T09:10:53.827Z,94.93
2018-11-21T09:11:32.863Z,96.03
2018-11-21T09:12:32.927Z,96.50
2018-11-21T09:13:32.987Z,96.92
2018-11-21T09:14:33.047Z,96.92
2018-11-21T09:15:33.099Z,97.12
2018-11-21T09:16:33.159Z,97.50
2018-11-21T09:17:33.220Z,96.97
2018-11-21T09:18:33.304Z,96.59
2018-11-21T09:19:33.339Z,94.27
2018-11-21T09:20:33.403Z,92.85
2018-11-21T09:21:33.460Z,91.61
2018-11-21T09:22:33.524Z,91.24
2018-11-21T09:23:33.591Z,90.71
2018-11-21T09:24:33.656Z,90.05
2018-11-21T09:25:33.706Z,89.47
2018-11-21T09:26:33.765Z,88.28
2018-11-21T09:27:33.827Z,87.62
2018-11-21T09:28:33.891Z,86.29
2018-11-21T09:29:33.956Z,85.95
2018-11-21T09:30:34.008Z,85.10
2018-11-21T09:31:34.072Z,84.72
2018-11-21T09:32:34.134Z,83.29
2018-11-21T09:33:34.237Z,83.39
2018-11-21T09:34:34.254Z,82.34
2018-11-21T09:35:34.320Z,81.77
2018-11-21T09:36:34.382Z,81.77
2018-11-21T09:37:34.436Z,81.10
2018-11-21T09:38:34.508Z,80.72
2018-11-21T09:39:34.568Z,80.91
2018-11-21T09:40:34.621Z,80.24
2018-11-21T09:41:34.688Z,80.24
2018-11-21T09:42:34.748Z,80.77
2018-11-21T09:43:34.817Z,82.39
2018-11-21T09:44:34.876Z,82.92
2018-11-21T09:45:34.928Z,83.87
2018-11-21T09:46:34.996Z,84.34
2018-11-21T09:47:35.052Z,85.16
2018-11-21T09:48:35.141Z,85.91
2018-11-21T09:49:35.177Z,86.49
2018-11-21T09:50:35.237Z,86.87
2018-11-21T09:51:35.301Z,87.24
2018-11-21T09:52:35.360Z,87.62
2018-11-21T09:53:35.429Z,87.82
2018-11-21T09:54:35.493Z,88.10
2018-11-21T09:55:35.976Z,88.48
2018-11-21T09:56:35.605Z,88.10
2018-11-21T09:57:35.665Z,87.82
2018-11-21T09:58:35.733Z,87.57
2018-11-21T09:59:35.797Z,86.63
2018-11-21T10:00:35.850Z,85.77
2018-11-21T10:01:35.909Z,85.68
2018-11-21T10:02:35.969Z,85.11
2018-11-21T10:03:36.044Z,84.72
2018-11-21T10:04:36.106Z,84.67
2018-11-21T10:05:36.153Z,84.72
2018-11-21T10:06:36.217Z,84.10
2018-11-21T10:07:36.277Z,84.10
2018-11-21T10:08:36.369Z,84.20
2018-11-21T10:09:36.397Z,83.82
2018-11-21T10:10:36.462Z,83.62
2018-11-21T10:11:36.521Z,83.59
2018-11-21T10:12:36.582Z,84.44
2018-11-21T10:13:36.656Z,84.63
2018-11-21T10:14:36.714Z,85.16
2018-11-21T10:15:36.766Z,85.82
2018-11-21T10:16:36.830Z,86.20
2018-11-21T10:17:36.890Z,86.11
2018-11-21T10:18:36.960Z,86.68
2018-11-21T10:19:37.018Z,87.39
2018-11-21T10:20:37.075Z,87.96
2018-11-21T10:21:37.134Z,87.96
2018-11-21T10:22:37.195Z,88.34
2018-11-21T10:23:37.281Z,89.00
2018-11-21T10:24:37.318Z,89.39
2018-11-21T10:25:37.379Z,89.48
2018-11-21T10:26:37.439Z,89.95
2018-11-21T10:27:37.502Z,89.10
2018-11-21T10:28:37.562Z,89.76
2018-11-21T10:29:37.639Z,89.39
2018-11-21T10:30:37.719Z,89.58
2018-11-21T10:31:37.743Z,89.48
2018-11-21T10:32:37.806Z,89.48
2018-11-21T10:33:37.872Z,89.10
2018-11-21T10:34:37.927Z,89.53
2018-11-21T10:35:37.988Z,88.86
2018-11-21T10:36:38.047Z,88.29
2018-11-21T10:37:38.111Z,88.48
2018-11-21T10:38:38.311Z,88.01
2018-11-21T10:39:38.239Z,87.72
2018-11-21T10:40:38.292Z,88.01
2018-11-21T10:41:38.360Z,87.34
2018-11-21T10:42:38.411Z,87.43
2018-11-21T10:43:38.479Z,87.53
2018-11-21T10:44:38.547Z,87.34
2018-11-21T10:45:38.600Z,86.68
2018-11-21T10:46:38.655Z,86.63
2018-11-21T10:47:38.714Z,87.10
2018-11-21T10:48:38.783Z,86.24
2018-11-21T10:49:38.844Z,85.86
2018-11-21T10:50:38.904Z,85.01
2018-11-21T10:51:38.960Z,84.82
2018-11-21T10:52:39.027Z,84.91
2018-11-21T10:53:39.294Z,84.63
2018-11-21T10:54:39.143Z,84.82
2018-11-21T10:55:39.203Z,84.91
2018-11-21T10:56:39.264Z,84.91
2018-11-21T10:57:39.324Z,84.72
2018-11-21T10:58:39.391Z,85.11
2018-11-21T10:59:39.470Z,84.82
2018-11-21T11:00:39.512Z,85.49
2018-11-21T11:01:39.568Z,84.91
2018-11-21T11:02:39.639Z,85.20
2018-11-21T11:03:39.704Z,85.01
2018-11-21T11:04:39.763Z,84.72
2018-11-21T11:05:39.812Z,84.82
2018-11-21T11:06:39.872Z,84.87
2018-11-21T11:07:39.936Z,85.63
2018-11-21T11:08:40.000Z,85.53
2018-11-21T11:09:40.064Z,85.72
2018-11-21T11:10:40.120Z,86.01
2018-11-21T11:11:40.176Z,86.30
2018-11-21T11:12:40.236Z,86.20
2018-11-21T11:13:40.297Z,85.82
2018-11-21T11:14:40.413Z,86.01
2018-11-21T11:15:40.420Z,85.63
2018-11-21T11:16:40.485Z,86.01
2018-11-21T11:17:40.541Z,86.39
2018-11-21T11:18:40.600Z,86.20
2018-11-21T11:19:40.669Z,86.11
2018-11-21T11:20:40.730Z,86.11
2018-11-21T11:21:40.781Z,86.11
2018-11-21T11:22:40.840Z,86.39
2018-11-21T11:23:40.903Z,86.30
2018-11-21T11:24:40.969Z,86.30
2018-11-21T11:25:41.045Z,86.68
2018-11-21T11:26:41.081Z,87.05
2018-11-21T11:27:41.142Z,86.68
2018-11-21T11:28:41.213Z,86.77
2018-11-21T11:29:41.264Z,86.96
2018-11-21T11:30:41.338Z,87.53
2018-11-21T11:31:41.381Z,87.05
2018-11-21T11:32:41.448Z,87.24
2018-11-21T11:33:41.501Z,87.05
2018-11-21T11:34:41.561Z,87.34
2018-11-21T11:35:41.633Z,87.15
2018-11-21T11:36:41.689Z,87.15
2018-11-21T11:37:41.752Z,87.72
2018-11-21T11:38:41.802Z,87.15
2018-11-21T11:39:41.861Z,86.87
2018-11-21T11:40:41.929Z,87.15
2018-11-21T11:41:41.997Z,87.34
2018-11-21T11:42:42.042Z,86.96
2018-11-21T11:43:42.102Z,86.96
2018-11-21T11:44:42.162Z,86.77
2018-11-21T11:45:42.462Z,86.87
2018-11-21T11:46:42.281Z,86.39
2018-11-21T11:47:42.345Z,86.39
2018-11-21T11:48:42.403Z,86.30
2018-11-21T11:49:42.462Z,86.30
2018-11-21T11:50:42.531Z,86.39
2018-11-21T11:51:42.598Z,85.82
2018-11-21T11:52:42.655Z,85.96
2018-11-21T11:53:42.704Z,86.15
2018-11-21T11:54:42.765Z,85.86
2018-11-21T11:55:42.830Z,86.24
2018-11-21T11:56:42.890Z,86.24
2018-11-21T11:57:42.942Z,85.68
2018-11-21T11:58:43.002Z,85.53
2018-11-21T11:59:43.063Z,85.39
2018-11-21T12:00:43.220Z,85.63
2018-11-21T12:01:43.183Z,86.24
2018-11-21T12:02:43.246Z,85.86
2018-11-21T12:03:43.302Z,85.77
2018-11-21T12:04:43.363Z,85.63
2018-11-21T12:05:43.430Z,86.11
2018-11-21T12:06:43.491Z,85.82
2018-11-21T12:07:43.545Z,86.01
2018-11-21T12:08:43.603Z,86.01
2018-11-21T12:09:43.662Z,86.15
2018-11-21T12:10:43.731Z,85.20
2018-11-21T12:11:43.795Z,85.39
2018-11-21T12:12:43.844Z,85.20
2018-11-21T12:13:43.903Z,85.11
2018-11-21T12:14:43.967Z,84.91
2018-11-21T12:15:44.031Z,85.49
2018-11-21T12:16:44.091Z,85.20
2018-11-21T12:17:44.147Z,85.01
2018-11-21T12:18:44.207Z,85.01
2018-11-21T12:19:44.271Z,84.78
2018-11-21T12:20:44.331Z,85.01
2018-11-21T12:21:44.391Z,85.20
2018-11-21T12:22:44.447Z,85.39
2018-11-21T12:23:44.507Z,84.82
2018-11-21T12:24:44.573Z,84.91
2018-11-21T12:25:44.635Z,84.82
2018-11-21T12:26:44.699Z,85.58
2018-11-21T12:27:44.747Z,85.39
2018-11-21T12:28:44.807Z,85.68
2018-11-21T12:29:44.868Z,86.15
2018-11-21T12:30:44.936Z,85.49
2018-11-21T12:31:44.996Z,85.58
2018-11-21T12:32:45.048Z,85.39
2018-11-21T12:33:45.108Z,85.39
2018-11-21T12:34:45.171Z,85.30
2018-11-21T12:35:45.488Z,85.58
2018-11-21T12:36:45.288Z,85.30
2018-11-21T12:37:45.389Z,85.39
2018-11-21T12:38:45.426Z,85.68
2018-11-21T12:39:45.472Z,85.82
2018-11-21T12:40:45.535Z,85.63
2018-11-21T12:41:45.596Z,86.24
2018-11-21T12:42:45.652Z,86.11
2018-11-21T12:43:45.714Z,85.91
2018-11-21T12:44:45.772Z,86.20
2018-11-21T12:45:45.841Z,86.01
2018-11-21T12:46:45.901Z,86.30
2018-11-21T12:47:45.956Z,86.58
2018-11-21T12:48:46.012Z,86.20
2018-11-21T12:49:46.072Z,86.11
2018-11-21T12:50:46.217Z,86.49
2018-11-21T12:51:46.193Z,86.58
2018-11-21T12:52:46.257Z,86.68